sensor_id;sensor_type;location;lat;lon;timestamp;pressure;altitude;pressure_sealevel;temperature;humidity
39129;BME280;24864;49.940;19.770;2022-12-11T00:00:54;76062.50;;;-147.98;100.00
39129;BME280;24864;49.940;19.770;2022-12-11T00:03:41;76060.41;;;-147.98;100.00
39129;BME280;24864;49.940;19.770;2022-12-11T00:06:11;76070.81;;;-147.98;100.00
39129;BME280;24864;49.940;19.770;2022-12-11T00:08:39;76077.03;;;-147.98;100.00
39129;BME280;24864;49.940;19.770;2022-12-11T00:11:11;76074.97;;;-147.98;100.00
39129;BME280;24864;49.940;19.770;2022-12-11T00:13:39;76079.13;;;-147.98;100.00
39129;BME280;24864;49.940;19.770;2022-12-11T00:16:07;76074.97;;;-147.98;100.00
39129;BME280;24864;49.940;19.770;2022-12-11T00:18:36;76087.44;;;-147.98;100.00
39129;BME280;24864;49.940;19.770;2022-12-11T00:21:06;76083.28;;;-147.98;100.00
39129;BME280;24864;49.940;19.770;2022-12-11T00:23:35;76074.97;;;-147.98;100.00
39129;BME280;24864;49.940;19.770;2022-12-11T00:26:05;76066.66;;;-147.98;100.00
39129;BME280;24864;49.940;19.770;2022-12-11T00:28:35;76083.28;;;-147.98;100.00
39129;BME280;24864;49.940;19.770;2022-12-11T00:31:03;76079.13;;;-147.98;100.00
39129;BME280;24864;49.940;19.770;2022-12-11T00:33:32;76077.03;;;-147.98;100.00
39129;BME280;24864;49.940;19.770;2022-12-11T00:36:00;76062.50;;;-147.98;100.00
39129;BME280;24864;49.940;19.770;2022-12-11T00:38:28;76062.50;;;-147.98;100.00
39129;BME280;24864;49.940;19.770;2022-12-11T00:40:57;76072.88;;;-147.98;100.00
39129;BME280;24864;49.940;19.770;2022-12-11T00:43:25;76079.13;;;-147.98;100.00
39129;BME280;24864;49.940;19.770;2022-12-11T00:45:54;76074.97;;;-147.98;100.00
39129;BME280;24864;49.940;19.770;2022-12-11T00:48:22;76066.66;;;-147.98;100.00
39129;BME280;24864;49.940;19.770;2022-12-11T00:50:50;76066.66;;;-147.98;100.00
39129;BME280;24864;49.940;19.770;2022-12-11T00:53:18;76068.72;;;-147.98;100.00
39129;BME280;24864;49.940;19.770;2022-12-11T00:55:46;76070.81;;;-147.98;100.00
39129;BME280;24864;49.940;19.770;2022-12-11T00:58:14;76079.13;;;-147.98;100.00
39129;BME280;24864;49.940;19.770;2022-12-11T01:00:43;76066.66;;;-147.98;100.00
39129;BME280;24864;49.940;19.770;2022-12-11T01:03:13;76077.03;;;-147.98;100.00
39129;BME280;24864;49.940;19.770;2022-12-11T01:05:49;76062.50;;;-147.98;100.00
39129;BME280;24864;49.940;19.770;2022-12-11T01:08:17;76074.97;;;-147.98;100.00
39129;BME280;24864;49.940;19.770;2022-12-11T01:10:46;76079.13;;;-147.98;100.00
39129;BME280;24864;49.940;19.770;2022-12-11T01:13:13;76068.72;;;-147.98;100.00
39129;BME280;24864;49.940;19.770;2022-12-11T01:15:43;76068.72;;;-147.98;100.00
39129;BME280;24864;49.940;19.770;2022-12-11T01:18:13;76074.97;;;-147.98;100.00
39129;BME280;24864;49.940;19.770;2022-12-11T01:20:42;76070.81;;;-147.98;100.00
39129;BME280;24864;49.940;19.770;2022-12-11T01:23:11;76074.97;;;-147.98;100.00
39129;BME280;24864;49.940;19.770;2022-12-11T01:25:40;76070.81;;;-147.98;100.00
39129;BME280;24864;49.940;19.770;2022-12-11T01:28:08;76074.97;;;-147.98;100.00
39129;BME280;24864;49.940;19.770;2022-12-11T01:30:40;76074.97;;;-147.98;100.00
39129;BME280;24864;49.940;19.770;2022-12-11T01:33:09;76079.13;;;-147.98;100.00
39129;BME280;24864;49.940;19.770;2022-12-11T01:35:39;76066.66;;;-147.98;100.00
39129;BME280;24864;49.940;19.770;2022-12-11T01:38:07;76079.13;;;-147.98;100.00
39129;BME280;24864;49.940;19.770;2022-12-11T01:40:36;76072.88;;;-147.98;100.00
39129;BME280;24864;49.940;19.770;2022-12-11T01:43:04;76074.97;;;-147.98;100.00
39129;BME280;24864;49.940;19.770;2022-12-11T01:45:37;76058.34;;;-147.98;100.00
39129;BME280;24864;49.940;19.770;2022-12-11T01:48:10;76064.56;;;-147.98;100.00
39129;BME280;24864;49.940;19.770;2022-12-11T01:50:42;76072.88;;;-147.98;100.00
39129;BME280;24864;49.940;19.770;2022-12-11T01:53:16;76058.34;;;-147.98;100.00
39129;BME280;24864;49.940;19.770;2022-12-11T01:55:47;76052.09;;;-147.98;100.00
39129;BME280;24864;49.940;19.770;2022-12-11T01:58:17;76058.34;;;-147.98;100.00
39129;BME280;24864;49.940;19.770;2022-12-11T02:03:49;76050.00;;;-147.98;100.00
39129;BME280;24864;49.940;19.770;2022-12-11T02:06:34;76035.47;;;-147.98;100.00
39129;BME280;24864;49.940;19.770;2022-12-11T02:09:04;76033.38;;;-147.98;100.00
39129;BME280;24864;49.940;19.770;2022-12-11T02:11:39;76037.53;;;-147.98;100.00
39129;BME280;24864;49.940;19.770;2022-12-11T02:14:16;76047.94;;;-147.98;100.00
39129;BME280;24864;49.940;19.770;2022-12-11T02:16:53;76037.53;;;-147.98;100.00
39129;BME280;24864;49.940;19.770;2022-12-11T02:19:51;76043.78;;;-147.98;100.00
39129;BME280;24864;49.940;19.770;2022-12-11T02:22:27;76047.94;;;-147.98;100.00
39129;BME280;24864;49.940;19.770;2022-12-11T02:25:04;76041.69;;;-147.98;100.00
39129;BME280;24864;49.940;19.770;2022-12-11T02:27:41;76045.84;;;-147.98;100.00
39129;BME280;24864;49.940;19.770;2022-12-11T02:30:14;76039.63;;;-147.98;100.00
39129;BME280;24864;49.940;19.770;2022-12-11T02:32:45;76045.84;;;-147.98;100.00
39129;BME280;24864;49.940;19.770;2022-12-11T02:35:17;76047.94;;;-147.98;100.00
39129;BME280;24864;49.940;19.770;2022-12-11T02:37:50;76037.53;;;-147.98;100.00
39129;BME280;24864;49.940;19.770;2022-12-11T02:40:24;76045.84;;;-147.98;100.00
39129;BME280;24864;49.940;19.770;2022-12-11T02:42:55;76054.19;;;-147.98;100.00
39129;BME280;24864;49.940;19.770;2022-12-11T02:45:26;76043.78;;;-147.98;100.00
39129;BME280;24864;49.940;19.770;2022-12-11T02:47:57;76072.88;;;-147.98;100.00
39129;BME280;24864;49.940;19.770;2022-12-11T02:50:26;76074.97;;;-147.98;100.00
39129;BME280;24864;49.940;19.770;2022-12-11T02:52:56;76060.41;;;-147.98;100.00
39129;BME280;24864;49.940;19.770;2022-12-11T02:55:28;76054.19;;;-147.98;100.00
39129;BME280;24864;49.940;19.770;2022-12-11T02:58:01;76058.34;;;-147.98;100.00
39129;BME280;24864;49.940;19.770;2022-12-11T03:00:33;76062.50;;;-147.98;100.00
39129;BME280;24864;49.940;19.770;2022-12-11T03:03:01;76062.50;;;-147.98;100.00
39129;BME280;24864;49.940;19.770;2022-12-11T03:05:29;76045.84;;;-147.98;100.00
39129;BME280;24864;49.940;19.770;2022-12-11T03:07:58;76062.50;;;-147.98;100.00
39129;BME280;24864;49.940;19.770;2022-12-11T03:10:26;76066.66;;;-147.98;100.00
39129;BME280;24864;49.940;19.770;2022-12-11T03:12:55;76058.34;;;-147.98;100.00
39129;BME280;24864;49.940;19.770;2022-12-11T03:15:32;76070.81;;;-147.98;100.00
39129;BME280;24864;49.940;19.770;2022-12-11T03:18:08;76058.34;;;-147.98;100.00
39129;BME280;24864;49.940;19.770;2022-12-11T03:20:42;76062.50;;;-147.98;100.00
39129;BME280;24864;49.940;19.770;2022-12-11T03:23:17;76056.25;;;-147.98;100.00
39129;BME280;24864;49.940;19.770;2022-12-11T03:25:53;76056.25;;;-147.98;100.00
39129;BME280;24864;49.940;19.770;2022-12-11T03:28:26;76066.66;;;-147.98;100.00
39129;BME280;24864;49.940;19.770;2022-12-11T03:31:02;76058.34;;;-147.98;100.00
39129;BME280;24864;49.940;19.770;2022-12-11T03:33:34;76058.34;;;-147.98;100.00
39129;BME280;24864;49.940;19.770;2022-12-11T03:36:04;76060.41;;;-147.98;100.00
39129;BME280;24864;49.940;19.770;2022-12-11T03:38:36;76058.34;;;-147.98;100.00
39129;BME280;24864;49.940;19.770;2022-12-11T03:41:07;76064.56;;;-147.98;100.00
39129;BME280;24864;49.940;19.770;2022-12-11T03:43:37;76054.19;;;-147.98;100.00
39129;BME280;24864;49.940;19.770;2022-12-11T03:46:09;76066.66;;;-147.98;100.00
39129;BME280;24864;49.940;19.770;2022-12-11T03:48:40;76072.88;;;-147.98;100.00
39129;BME280;24864;49.940;19.770;2022-12-11T03:51:11;76062.50;;;-147.98;100.00
39129;BME280;24864;49.940;19.770;2022-12-11T03:53:40;76068.72;;;-147.98;100.00
39129;BME280;24864;49.940;19.770;2022-12-11T03:56:09;76066.66;;;-147.98;100.00
39129;BME280;24864;49.940;19.770;2022-12-11T03:58:39;76058.34;;;-147.98;100.00
39129;BME280;24864;49.940;19.770;2022-12-11T04:01:09;76062.50;;;-147.98;100.00
39129;BME280;24864;49.940;19.770;2022-12-11T04:03:38;76062.50;;;-147.98;100.00
39129;BME280;24864;49.940;19.770;2022-12-11T04:06:06;76058.34;;;-147.98;100.00
39129;BME280;24864;49.940;19.770;2022-12-11T04:08:34;76068.72;;;-147.98;100.00
39129;BME280;24864;49.940;19.770;2022-12-11T04:11:03;76062.50;;;-147.98;100.00
39129;BME280;24864;49.940;19.770;2022-12-11T04:13:49;76062.50;;;-147.98;100.00
39129;BME280;24864;49.940;19.770;2022-12-11T04:16:38;76062.50;;;-147.98;100.00
39129;BME280;24864;49.940;19.770;2022-12-11T04:19:05;76066.66;;;-147.98;100.00
39129;BME280;24864;49.940;19.770;2022-12-11T04:21:51;76058.34;;;-147.98;100.00
39129;BME280;24864;49.940;19.770;2022-12-11T04:24:37;76045.84;;;-147.98;100.00
39129;BME280;24864;49.940;19.770;2022-12-11T04:27:05;76074.97;;;-147.98;100.00
39129;BME280;24864;49.940;19.770;2022-12-11T04:29:33;76068.72;;;-147.98;100.00
39129;BME280;24864;49.940;19.770;2022-12-11T04:32:03;76062.50;;;-147.98;100.00
39129;BME280;24864;49.940;19.770;2022-12-11T04:34:31;76070.81;;;-147.98;100.00
39129;BME280;24864;49.940;19.770;2022-12-11T04:36:58;76070.81;;;-147.98;100.00
39129;BME280;24864;49.940;19.770;2022-12-11T04:39:27;76062.50;;;-147.98;100.00
39129;BME280;24864;49.940;19.770;2022-12-11T04:41:54;76058.34;;;-147.98;100.00
39129;BME280;24864;49.940;19.770;2022-12-11T04:44:22;76077.03;;;-147.98;100.00
39129;BME280;24864;49.940;19.770;2022-12-11T04:46:50;76077.03;;;-147.98;100.00
39129;BME280;24864;49.940;19.770;2022-12-11T04:49:20;76077.03;;;-147.98;100.00
39129;BME280;24864;49.940;19.770;2022-12-11T04:51:48;76074.97;;;-147.98;100.00
39129;BME280;24864;49.940;19.770;2022-12-11T04:54:16;76081.19;;;-147.98;100.00
39129;BME280;24864;49.940;19.770;2022-12-11T04:56:44;76079.13;;;-147.98;100.00
39129;BME280;24864;49.940;19.770;2022-12-11T04:59:12;76083.28;;;-147.98;100.00
39129;BME280;24864;49.940;19.770;2022-12-11T05:01:40;76087.44;;;-147.98;100.00
39129;BME280;24864;49.940;19.770;2022-12-11T05:04:08;76079.13;;;-147.98;100.00
39129;BME280;24864;49.940;19.770;2022-12-11T05:06:37;76074.97;;;-147.98;100.00
39129;BME280;24864;49.940;19.770;2022-12-11T05:09:09;76079.13;;;-147.98;100.00
39129;BME280;24864;49.940;19.770;2022-12-11T05:11:37;76079.13;;;-147.98;100.00
39129;BME280;24864;49.940;19.770;2022-12-11T05:14:05;76079.13;;;-147.98;100.00
39129;BME280;24864;49.940;19.770;2022-12-11T05:16:33;76070.81;;;-147.98;100.00
39129;BME280;24864;49.940;19.770;2022-12-11T05:19:01;76068.72;;;-147.98;100.00
39129;BME280;24864;49.940;19.770;2022-12-11T05:21:29;76070.81;;;-147.98;100.00
39129;BME280;24864;49.940;19.770;2022-12-11T05:24:03;76068.72;;;-147.98;100.00
39129;BME280;24864;49.940;19.770;2022-12-11T05:26:31;76066.66;;;-147.98;100.00
39129;BME280;24864;49.940;19.770;2022-12-11T05:28:59;76070.81;;;-147.98;100.00
39129;BME280;24864;49.940;19.770;2022-12-11T05:31:26;76064.56;;;-147.98;100.00
39129;BME280;24864;49.940;19.770;2022-12-11T05:33:55;76064.56;;;-147.98;100.00
39129;BME280;24864;49.940;19.770;2022-12-11T05:36:24;76060.41;;;-147.98;100.00
39129;BME280;24864;49.940;19.770;2022-12-11T05:38:53;76066.66;;;-147.98;100.00
39129;BME280;24864;49.940;19.770;2022-12-11T05:41:25;76066.66;;;-147.98;100.00
39129;BME280;24864;49.940;19.770;2022-12-11T05:43:54;76054.19;;;-147.98;100.00
39129;BME280;24864;49.940;19.770;2022-12-11T05:46:24;76054.19;;;-147.98;100.00
39129;BME280;24864;49.940;19.770;2022-12-11T05:48:54;76054.19;;;-147.98;100.00
39129;BME280;24864;49.940;19.770;2022-12-11T05:51:23;76045.84;;;-147.98;100.00
39129;BME280;24864;49.940;19.770;2022-12-11T05:53:53;76045.84;;;-147.98;100.00
39129;BME280;24864;49.940;19.770;2022-12-11T05:56:23;76041.69;;;-147.98;100.00
39129;BME280;24864;49.940;19.770;2022-12-11T05:58:53;76041.69;;;-147.98;100.00
39129;BME280;24864;49.940;19.770;2022-12-11T06:01:22;76039.63;;;-147.98;100.00
39129;BME280;24864;49.940;19.770;2022-12-11T06:03:51;76054.19;;;-147.98;100.00
39129;BME280;24864;49.940;19.770;2022-12-11T06:06:19;76062.50;;;-147.98;100.00
39129;BME280;24864;49.940;19.770;2022-12-11T06:08:48;76060.41;;;-147.98;100.00
39129;BME280;24864;49.940;19.770;2022-12-11T06:11:16;76068.72;;;-147.98;100.00
39129;BME280;24864;49.940;19.770;2022-12-11T06:13:51;76068.72;;;-147.98;100.00
39129;BME280;24864;49.940;19.770;2022-12-11T06:16:20;76074.97;;;-147.98;100.00
39129;BME280;24864;49.940;19.770;2022-12-11T06:18:48;76074.97;;;-147.98;100.00
39129;BME280;24864;49.940;19.770;2022-12-11T06:21:18;76070.81;;;-147.98;100.00
39129;BME280;24864;49.940;19.770;2022-12-11T06:23:48;76083.28;;;-147.98;100.00
39129;BME280;24864;49.940;19.770;2022-12-11T06:26:17;76089.50;;;-147.98;100.00
39129;BME280;24864;49.940;19.770;2022-12-11T06:28:46;76085.34;;;-147.98;100.00
39129;BME280;24864;49.940;19.770;2022-12-11T06:31:16;76097.84;;;-147.98;100.00
39129;BME280;24864;49.940;19.770;2022-12-11T06:33:45;76091.59;;;-147.98;100.00
39129;BME280;24864;49.940;19.770;2022-12-11T06:36:15;76104.06;;;-147.98;100.00
39129;BME280;24864;49.940;19.770;2022-12-11T06:38:44;76116.53;;;-147.98;100.00
39129;BME280;24864;49.940;19.770;2022-12-11T06:41:13;76108.22;;;-147.98;100.00
39129;BME280;24864;49.940;19.770;2022-12-11T06:43:41;76124.84;;;-147.98;100.00
39129;BME280;24864;49.940;19.770;2022-12-11T06:46:11;76120.69;;;-147.98;100.00
39129;BME280;24864;49.940;19.770;2022-12-11T06:48:42;76120.69;;;-147.98;100.00
39129;BME280;24864;49.940;19.770;2022-12-11T06:51:11;76122.78;;;-147.98;100.00
39129;BME280;24864;49.940;19.770;2022-12-11T06:53:40;76120.69;;;-147.98;100.00
39129;BME280;24864;49.940;19.770;2022-12-11T06:56:11;76124.84;;;-147.98;100.00
39129;BME280;24864;49.940;19.770;2022-12-11T06:58:41;76124.84;;;-147.98;100.00
39129;BME280;24864;49.940;19.770;2022-12-11T07:01:16;76126.94;;;-147.98;100.00
39129;BME280;24864;49.940;19.770;2022-12-11T07:03:46;76122.78;;;-147.98;100.00
39129;BME280;24864;49.940;19.770;2022-12-11T07:06:14;76126.94;;;-147.98;100.00
39129;BME280;24864;49.940;19.770;2022-12-11T07:08:43;76133.19;;;-147.98;100.00
39129;BME280;24864;49.940;19.770;2022-12-11T07:11:12;76129.00;;;-147.98;100.00
39129;BME280;24864;49.940;19.770;2022-12-11T07:13:41;76135.25;;;-147.98;100.00
39129;BME280;24864;49.940;19.770;2022-12-11T07:16:10;76133.19;;;-147.98;100.00
39129;BME280;24864;49.940;19.770;2022-12-11T07:18:40;76126.94;;;-147.98;100.00
39129;BME280;24864;49.940;19.770;2022-12-11T07:21:11;76129.00;;;-147.98;100.00
39129;BME280;24864;49.940;19.770;2022-12-11T07:23:40;76129.00;;;-147.98;100.00
39129;BME280;24864;49.940;19.770;2022-12-11T07:26:11;76137.34;;;-147.98;100.00
39129;BME280;24864;49.940;19.770;2022-12-11T07:28:40;76129.00;;;-147.98;100.00
39129;BME280;24864;49.940;19.770;2022-12-11T07:31:09;76120.69;;;-147.98;100.00
39129;BME280;24864;49.940;19.770;2022-12-11T07:33:39;76118.63;;;-147.98;100.00
39129;BME280;24864;49.940;19.770;2022-12-11T07:36:11;76124.84;;;-147.98;100.00
39129;BME280;24864;49.940;19.770;2022-12-11T07:38:39;76124.84;;;-147.98;100.00
39129;BME280;24864;49.940;19.770;2022-12-11T07:41:10;76122.78;;;-147.98;100.00
39129;BME280;24864;49.940;19.770;2022-12-11T07:43:39;76131.09;;;-147.98;100.00
39129;BME280;24864;49.940;19.770;2022-12-11T07:46:10;76129.00;;;-147.98;100.00
39129;BME280;24864;49.940;19.770;2022-12-11T07:48:40;76131.09;;;-147.98;100.00
39129;BME280;24864;49.940;19.770;2022-12-11T07:51:10;76129.00;;;-147.98;100.00
39129;BME280;24864;49.940;19.770;2022-12-11T07:53:38;76124.84;;;-147.98;100.00
39129;BME280;24864;49.940;19.770;2022-12-11T07:56:07;76126.94;;;-147.98;100.00
39129;BME280;24864;49.940;19.770;2022-12-11T07:58:35;76129.00;;;-147.98;100.00
39129;BME280;24864;49.940;19.770;2022-12-11T08:01:05;76120.69;;;-147.98;100.00
39129;BME280;24864;49.940;19.770;2022-12-11T08:03:33;76120.69;;;-147.98;100.00
39129;BME280;24864;49.940;19.770;2022-12-11T08:06:00;76129.00;;;-147.98;100.00
39129;BME280;24864;49.940;19.770;2022-12-11T08:08:30;76112.38;;;-147.98;100.00
39129;BME280;24864;49.940;19.770;2022-12-11T08:11:09;76120.69;;;-147.98;100.00
39129;BME280;24864;49.940;19.770;2022-12-11T08:13:44;76124.84;;;-147.98;100.00
39129;BME280;24864;49.940;19.770;2022-12-11T08:17:13;76126.94;;;-147.98;100.00
39129;BME280;24864;49.940;19.770;2022-12-11T08:21:15;76116.53;;;-147.98;100.00
39129;BME280;24864;49.940;19.770;2022-12-11T08:24:14;76124.84;;;-147.98;100.00
39129;BME280;24864;49.940;19.770;2022-12-11T08:26:46;76124.84;;;-147.98;100.00
39129;BME280;24864;49.940;19.770;2022-12-11T08:29:14;76145.66;;;-147.98;100.00
39129;BME280;24864;49.940;19.770;2022-12-11T08:31:42;76141.50;;;-147.98;100.00
39129;BME280;24864;49.940;19.770;2022-12-11T08:34:10;76137.34;;;-147.98;100.00
39129;BME280;24864;49.940;19.770;2022-12-11T08:36:40;76145.66;;;-147.98;100.00
39129;BME280;24864;49.940;19.770;2022-12-11T08:39:08;76143.56;;;-147.98;100.00
39129;BME280;24864;49.940;19.770;2022-12-11T08:41:37;76145.66;;;-147.98;100.00
39129;BME280;24864;49.940;19.770;2022-12-11T08:44:09;76147.72;;;-147.98;100.00
39129;BME280;24864;49.940;19.770;2022-12-11T08:46:43;76153.97;;;-147.98;100.00
39129;BME280;24864;49.940;19.770;2022-12-11T08:49:11;76149.81;;;-147.98;100.00
39129;BME280;24864;49.940;19.770;2022-12-11T08:51:39;76153.97;;;-147.98;100.00
39129;BME280;24864;49.940;19.770;2022-12-11T08:54:08;76153.97;;;-147.98;100.00
39129;BME280;24864;49.940;19.770;2022-12-11T08:56:38;76158.13;;;-147.98;100.00
39129;BME280;24864;49.940;19.770;2022-12-11T08:59:05;76166.44;;;-147.98;100.00
39129;BME280;24864;49.940;19.770;2022-12-11T09:01:34;76176.84;;;-147.98;100.00
39129;BME280;24864;49.940;19.770;2022-12-11T09:04:02;76174.75;;;-147.98;100.00
39129;BME280;24864;49.940;19.770;2022-12-11T09:06:31;76181.00;;;-147.98;100.00
39129;BME280;24864;49.940;19.770;2022-12-11T09:09:00;76187.22;;;-147.98;100.00
39129;BME280;24864;49.940;19.770;2022-12-11T09:11:30;76174.75;;;-147.98;100.00
39129;BME280;24864;49.940;19.770;2022-12-11T09:14:00;76166.44;;;-147.98;100.00
39129;BME280;24864;49.940;19.770;2022-12-11T09:16:37;76172.69;;;-147.98;100.00
39129;BME280;24864;49.940;19.770;2022-12-11T09:19:08;76170.59;;;-147.98;100.00
39129;BME280;24864;49.940;19.770;2022-12-11T09:21:38;76162.28;;;-147.98;100.00
39129;BME280;24864;49.940;19.770;2022-12-11T09:24:08;76153.97;;;-147.98;100.00
39129;BME280;24864;49.940;19.770;2022-12-11T09:26:36;76129.00;;;-147.98;100.00
39129;BME280;24864;49.940;19.770;2022-12-11T09:29:06;76129.00;;;-147.98;100.00
39129;BME280;24864;49.940;19.770;2022-12-11T09:31:35;76126.94;;;-147.98;100.00
39129;BME280;24864;49.940;19.770;2022-12-11T09:34:05;76112.38;;;-147.98;100.00
39129;BME280;24864;49.940;19.770;2022-12-11T09:36:34;76104.06;;;-147.98;100.00
39129;BME280;24864;49.940;19.770;2022-12-11T09:39:03;76099.91;;;-147.98;100.00
39129;BME280;24864;49.940;19.770;2022-12-11T09:41:35;76083.28;;;-147.98;100.00
39129;BME280;24864;49.940;19.770;2022-12-11T09:44:15;76091.59;;;-147.98;100.00
39129;BME280;24864;49.940;19.770;2022-12-11T09:46:45;76087.44;;;-147.98;100.00
39129;BME280;24864;49.940;19.770;2022-12-11T09:49:21;76070.81;;;-147.98;100.00
39129;BME280;24864;49.940;19.770;2022-12-11T09:51:57;76066.66;;;-147.98;100.00
39129;BME280;24864;49.940;19.770;2022-12-11T09:54:27;76062.50;;;-147.98;100.00
39129;BME280;24864;49.940;19.770;2022-12-11T09:57:02;76058.34;;;-147.98;100.00
39129;BME280;24864;49.940;19.770;2022-12-11T09:59:42;76064.56;;;-147.98;100.00
39129;BME280;24864;49.940;19.770;2022-12-11T10:02:23;76079.13;;;-147.98;100.00
39129;BME280;24864;49.940;19.770;2022-12-11T10:05:03;76064.56;;;-147.98;100.00
39129;BME280;24864;49.940;19.770;2022-12-11T10:07:42;76045.84;;;-147.98;100.00
39129;BME280;24864;49.940;19.770;2022-12-11T10:10:20;76054.19;;;-147.98;100.00
39129;BME280;24864;49.940;19.770;2022-12-11T10:12:56;76050.00;;;-147.98;100.00
39129;BME280;24864;49.940;19.770;2022-12-11T10:15:35;76041.69;;;-147.98;100.00
39129;BME280;24864;49.940;19.770;2022-12-11T10:18:09;76045.84;;;-147.98;100.00
39129;BME280;24864;49.940;19.770;2022-12-11T10:20:38;76045.84;;;-147.98;100.00
39129;BME280;24864;49.940;19.770;2022-12-11T10:23:15;76058.34;;;-147.98;100.00
39129;BME280;24864;49.940;19.770;2022-12-11T10:25:48;76066.66;;;-147.98;100.00
39129;BME280;24864;49.940;19.770;2022-12-11T10:28:19;76066.66;;;-147.98;100.00
39129;BME280;24864;49.940;19.770;2022-12-11T10:30:56;76083.28;;;-147.98;100.00
39129;BME280;24864;49.940;19.770;2022-12-11T10:33:33;76079.13;;;-147.98;100.00
39129;BME280;24864;49.940;19.770;2022-12-11T10:36:09;76112.38;;;-147.98;100.00
39129;BME280;24864;49.940;19.770;2022-12-11T10:38:41;76120.69;;;-147.98;100.00
39129;BME280;24864;49.940;19.770;2022-12-11T10:41:10;76120.69;;;-147.98;100.00
39129;BME280;24864;49.940;19.770;2022-12-11T10:43:41;76112.38;;;-147.98;100.00
39129;BME280;24864;49.940;19.770;2022-12-11T10:46:15;76108.22;;;-147.98;100.00
39129;BME280;24864;49.940;19.770;2022-12-11T10:48:45;76104.06;;;-147.98;100.00
39129;BME280;24864;49.940;19.770;2022-12-11T10:51:14;76120.69;;;-147.98;100.00
39129;BME280;24864;49.940;19.770;2022-12-11T10:53:43;76133.19;;;-147.98;100.00
39129;BME280;24864;49.940;19.770;2022-12-11T10:56:24;76131.09;;;-147.98;100.00
39129;BME280;24864;49.940;19.770;2022-12-11T10:58:54;76137.34;;;-147.98;100.00
39129;BME280;24864;49.940;19.770;2022-12-11T11:01:25;76143.56;;;-147.98;100.00
39129;BME280;24864;49.940;19.770;2022-12-11T11:03:57;76129.00;;;-147.98;100.00
39129;BME280;24864;49.940;19.770;2022-12-11T11:06:27;76129.00;;;-147.98;100.00
39129;BME280;24864;49.940;19.770;2022-12-11T11:08:57;76133.19;;;-147.98;100.00
39129;BME280;24864;49.940;19.770;2022-12-11T11:11:28;76133.19;;;-147.98;100.00
39129;BME280;24864;49.940;19.770;2022-12-11T11:14:12;76114.47;;;-147.98;100.00
39129;BME280;24864;49.940;19.770;2022-12-11T11:16:44;76108.22;;;-147.98;100.00
39129;BME280;24864;49.940;19.770;2022-12-11T11:19:17;76110.31;;;-147.98;100.00
39129;BME280;24864;49.940;19.770;2022-12-11T11:21:49;76095.75;;;-147.98;100.00
39129;BME280;24864;49.940;19.770;2022-12-11T11:24:26;76108.22;;;-147.98;100.00
39129;BME280;24864;49.940;19.770;2022-12-11T11:26:55;76135.25;;;-147.98;100.00
39129;BME280;24864;49.940;19.770;2022-12-11T11:29:40;76143.56;;;-147.98;100.00
39129;BME280;24864;49.940;19.770;2022-12-11T11:32:19;76133.19;;;-147.98;100.00
39129;BME280;24864;49.940;19.770;2022-12-11T11:34:49;76120.69;;;-147.98;100.00
39129;BME280;24864;49.940;19.770;2022-12-11T11:37:29;76133.19;;;-147.98;100.00
39129;BME280;24864;49.940;19.770;2022-12-11T11:40:02;76145.66;;;-147.98;100.00
39129;BME280;24864;49.940;19.770;2022-12-11T11:42:42;76151.88;;;-147.98;100.00
39129;BME280;24864;49.940;19.770;2022-12-11T11:45:15;76149.81;;;-147.98;100.00
39129;BME280;24864;49.940;19.770;2022-12-11T11:47:57;76137.34;;;-147.98;100.00
39129;BME280;24864;49.940;19.770;2022-12-11T11:50:34;76143.56;;;-147.98;100.00
39129;BME280;24864;49.940;19.770;2022-12-11T11:53:06;76145.66;;;-147.98;100.00
39129;BME280;24864;49.940;19.770;2022-12-11T11:55:39;76137.34;;;-147.98;100.00
39129;BME280;24864;49.940;19.770;2022-12-11T11:58:13;76108.22;;;-147.98;100.00
39129;BME280;24864;49.940;19.770;2022-12-11T12:00:42;76126.94;;;-147.98;100.00
39129;BME280;24864;49.940;19.770;2022-12-11T12:03:14;76116.53;;;-147.98;100.00
39129;BME280;24864;49.940;19.770;2022-12-11T12:05:49;76087.44;;;-147.98;100.00
39129;BME280;24864;49.940;19.770;2022-12-11T12:08:27;76106.16;;;-147.98;100.00
39129;BME280;24864;49.940;19.770;2022-12-11T12:11:04;76124.84;;;-147.98;100.00
39129;BME280;24864;49.940;19.770;2022-12-11T12:13:42;76120.69;;;-147.98;100.00
39129;BME280;24864;49.940;19.770;2022-12-11T12:16:23;76126.94;;;-147.98;100.00
39129;BME280;24864;49.940;19.770;2022-12-11T12:19:28;76122.78;;;-147.98;100.00
39129;BME280;24864;49.940;19.770;2022-12-11T12:22:06;76106.16;;;-147.98;100.00
39129;BME280;24864;49.940;19.770;2022-12-11T12:24:44;76124.84;;;-147.98;100.00
39129;BME280;24864;49.940;19.770;2022-12-11T12:27:19;76131.09;;;-147.98;100.00
39129;BME280;24864;49.940;19.770;2022-12-11T12:30:10;76133.19;;;-147.98;100.00
39129;BME280;24864;49.940;19.770;2022-12-11T12:32:58;76133.19;;;-147.98;100.00
39129;BME280;24864;49.940;19.770;2022-12-11T12:35:35;76129.00;;;-147.98;100.00
39129;BME280;24864;49.940;19.770;2022-12-11T12:38:08;76137.34;;;-147.98;100.00
39129;BME280;24864;49.940;19.770;2022-12-11T12:40:44;76137.34;;;-147.98;100.00
39129;BME280;24864;49.940;19.770;2022-12-11T12:43:29;76141.50;;;-147.98;100.00
39129;BME280;24864;49.940;19.770;2022-12-11T12:46:06;76145.66;;;-147.98;100.00
39129;BME280;24864;49.940;19.770;2022-12-11T12:48:37;76145.66;;;-147.98;100.00